Here is the Quick Look data you requested

The Data originates at the National Weather Service, and is made available here by the UAlbany Department of Atmospheric and Environmental Sciences

Surface Observations

KAKQ 101554Z AUTO 29007KT 10SM FEW027 SCT048 31/22 A2986 RMK AO2 SLP109
 T03060222=
KAVC 101555Z AUTO 26005KT 10SM 30/22 A2995 RMK AO2 T02960216=
KBCB 101555Z AUTO 26004KT 10SM CLR 29/21 A3001 RMK AO2 T02850212=
KCHO 101553Z 04007KT 10SM FEW035 32/19 A2988 RMK AO2 SLP108 T03220194=
KCJR 101555Z AUTO 01003KT 10SM SCT030 SCT038 30/21 A2988 RMK AO2 T02980208=
KCPK 101555Z AUTO 27008KT 7SM SCT034 BKN042 30/22 A2985 RMK AO2 T02960218=
KDAA 101556Z AUTO 36003KT 10SM FEW030 BKN040 29/22 A2985 RMK AO2 SLP110
 T02920219 $=
KDAN 101553Z AUTO 23005KT 10SM FEW026 SCT032 29/22 A2991 RMK AO2 SLP116
 T02940222=
KDCA 101552Z 33014KT 10SM SCT026 SCT031 BKN080 29/22 A2985 RMK AO2 SLP109
 T02890222=
KEZF 101555Z AUTO 01005KT 10SM SCT036 SCT046 30/22 A2985 RMK AO2 T03020221=
KFAF 101556Z 29008KT 10SM SCT023 SCT037 30/24 A2982 RMK AO2A SLP101 T02950239 $=
KFKN 101555Z AUTO 31004KT 10SM SCT025 SCT034 BKN046 29/23 A2987 RMK AO2
 T02880231=
KFVX 101555Z AUTO 34003KT 10SM SCT035 30/22 A2988 RMK AO2 T03020216=
KHEF 101556Z 01009KT 10SM BKN036 30/22 A2987 RMK AO2 SLP119 T03000217=
KHLX 101555Z AUTO 32009KT 260V340 10SM SCT028 27/20 A3001 RMK AO2 T02720197=
KHSP 101555Z AUTO 25007KT 10SM CLR 26/18 A3008 RMK AO2 T02550184=
KIAD 101552Z 01009KT 10SM SCT030 SCT045 29/21 A2987 RMK AO2 SLP111 T02890211=
KJYO 101555Z AUTO 02007KT 10SM BKN032 OVC038 27/21 A2989 RMK AO2=
KLFI 101556Z 26009KT 10SM SCT025 BKN033 30/25 A2984 RMK AO2A SLP111 T02980248 $=
KLKU 101555Z AUTO 36008KT 10SM SCT035 30/21 A2992 RMK AO2 T03000207=
KLNP 101555Z AUTO 23009G15KT 10SM SCT030 28/17 A3004 RMK AO2 LTG DSNT SE AND SW=
KLYH 101554Z 26004KT 10SM SCT033 SCT041 31/21 A2991 RMK AO2 SLP118 T03060211=
KMKJ 101555Z AUTO 23008KT 10SM SCT016 SCT025 27/22 A3005 RMK AO2 T02710223=
KMTV 101555Z AUTO 00000KT 10SM BKN030 BKN036 30/23 A2995 RMK AO2 T02970230=
KNGU 101559Z 27011G16KT 10SM SCT028 29/23 A2986 RMK AO2 SLP110 T02940228
KNTU 101556Z 31009KT 10SM SCT030 SCT250 31/22 A2983 RMK AO2 SLP103 T03110217=
KNYG 101556Z 01007KT 10SM BKN039 30/21 A2986 RMK AO2 SLP111 T03000211=
KOFP 101554Z AUTO 31008KT 10SM SCT030 BKN036 OVC045 30/22 A2987 RMK AO2 SLP111
 T03000222=
KOKV 101555Z AUTO 00000KT 10SM SCT037 28/18 A2988 RMK AO2=
KOMH 101555Z AUTO 33006KT 10SM SCT033 SCT043 29/20 A2988 RMK AO2=
KORF 101551Z 28007KT 10SM FEW028 31/23 A2984 RMK AO2 SLP105 T03110228=
KPHF 101554Z 27011KT 10SM FEW025 31/22 A2984 RMK AO2 SLP103 T03110222=
KPSK 101555Z AUTO 30003KT 10SM CLR 30/22 A3000 RMK AO2 T03040215=
KPTB 101555Z AUTO 28009KT 10SM SCT028 SCT039 30/21 A2988 RMK AO2 T03030205=
KRIC 101554Z 32010G18KT 10SM SCT029 BKN038 30/22 A2986 RMK AO2 SLP112 T03000217=
KROA 101554Z VRB06KT 10SM FEW075 32/21 A2993 RMK AO2 SLP120 T03170211=
KSFQ 101555Z AUTO 28010KT 10SM SCT029 BKN035 BKN044 30/22 A2987 RMK AO2
 T02990223=
KSHD 101555Z AUTO 00000KT 10SM CLR 29/21 A2993 RMK AO2 T02850207=
KVJI 101555Z AUTO 23006KT 10SM OVC022 26/20 A3002 RMK AO2 T02590195=
KWAL 101554Z 30017G25KT 10SM BKN020 BKN250 27/23 A2972 RMK AO2 PK WND
 31030/1500 RAB1457E17 SLP062 P0000 T02670228=